LIRN/NAP METAR and TAF weather

Enter ICAO airport designator
Station Type Date Time Source
LIRN METAR 2019/08/25 20:50 UTC NOAA

LIRN 252050Z VRB04KT CAVOK 26/17 Q1016 NOSIG


Station Type Date Time Source
LIRN Decoded METAR 2019/08/25 20:50 UTC NOAA

Station name not available
Aug 25, 2019 - 04:50 PM EDT / 2019.08.25 2050 UTC
Wind: Variable at 5 MPH (4 KT):0
Visibility: greater than 7 mile(s):0
Temperature: 78 F (26 C)
Dew Point: 62 F (17 C)
Relative Humidity: 57%
Pressure (altimeter): 30.00 in. Hg (1016 hPa)
ob: LIRN 252050Z VRB04KT CAVOK 26/17 Q1016 NOSIG
cycle: 21

Station Type Date Time Source
LIRN TAF 2019/08/25 18:21 UTC NOAA

TAF LIRN 251700Z 2518/2618 VRB05KT 9999 SCT030
BECMG 2610/2612 23010KT

Example: see airport list